createdAt,value
2019-02-06T00:02:22.512Z,98.30
2019-02-06T00:04:52.845Z,98.30
2019-02-06T00:07:23.155Z,98.30
2019-02-06T00:09:53.566Z,98.20
2019-02-06T00:12:24.204Z,98.10
2019-02-06T00:14:54.561Z,98.10
2019-02-06T00:17:24.915Z,98.10
2019-02-06T00:19:55.223Z,98.10
2019-02-06T00:22:25.545Z,98.20
2019-02-06T00:24:55.895Z,98.10
2019-02-06T00:27:26.706Z,98.10
2019-02-06T00:29:57.114Z,98.20
2019-02-06T00:32:27.401Z,98.10
2019-02-06T00:34:57.749Z,98.20
2019-02-06T00:37:28.079Z,98.10
2019-02-06T00:39:58.865Z,98.10
2019-02-06T00:42:29.141Z,98.40
2019-02-06T00:44:59.494Z,98.20
2019-02-06T00:47:31.287Z,98.20
2019-02-06T00:50:01.598Z,98.20
2019-02-06T00:52:31.908Z,98.30
2019-02-06T00:55:02.274Z,98.30
2019-02-06T00:57:32.597Z,98.50
2019-02-06T01:00:03.026Z,98.20
2019-02-06T01:02:34.431Z,98.30
2019-02-06T01:05:06.067Z,98.40
2019-02-06T01:07:36.685Z,98.50
2019-02-06T01:10:07.913Z,98.40
2019-02-06T01:12:38.257Z,98.40
2019-02-06T01:15:10.243Z,98.40
2019-02-06T01:17:42.123Z,98.40
2019-02-06T01:20:15.077Z,98.30
2019-02-06T01:22:45.375Z,98.30
2019-02-06T01:25:16.718Z,98.30
2019-02-06T01:27:47.007Z,98.30
2019-02-06T01:30:20.488Z,98.50
2019-02-06T01:32:50.914Z,98.60
2019-02-06T01:35:21.573Z,98.50
2019-02-06T01:37:51.930Z,98.60
2019-02-06T01:40:22.397Z,98.60
2019-02-06T01:42:52.747Z,98.60
2019-02-06T01:45:23.877Z,98.60
2019-02-06T01:47:54.801Z,98.60
2019-02-06T01:50:25.127Z,98.50
2019-02-06T01:52:55.524Z,98.50
2019-02-06T01:55:25.860Z,98.50
2019-02-06T01:57:56.171Z,98.50
2019-02-06T02:00:26.547Z,98.40
2019-02-06T02:02:57.409Z,98.50
2019-02-06T02:05:27.773Z,98.50
2019-02-06T02:07:58.105Z,98.50
2019-02-06T02:10:28.429Z,98.40
2019-02-06T02:12:58.797Z,98.50
2019-02-06T02:15:29.106Z,98.40
2019-02-06T02:17:59.967Z,98.50
2019-02-06T02:20:30.381Z,98.20
2019-02-06T02:23:00.689Z,98.10
2019-02-06T02:25:31.023Z,98.20
2019-02-06T02:28:01.331Z,98.10
2019-02-06T02:30:38.871Z,98.00
2019-02-06T02:33:09.177Z,98.00
2019-02-06T02:35:39.544Z,98.10
2019-02-06T02:38:09.821Z,98.20
2019-02-06T02:40:40.314Z,98.20
2019-02-06T02:43:11.007Z,98.20
2019-02-06T02:45:41.365Z,98.20
2019-02-06T02:48:12.255Z,98.40
2019-02-06T02:50:42.590Z,98.50
2019-02-06T02:53:13.961Z,98.50
2019-02-06T02:55:44.278Z,98.50
2019-02-06T02:58:14.705Z,98.50
2019-02-06T03:01:03.982Z,98.60
2019-02-06T03:03:59.512Z,98.60
2019-02-06T03:06:29.837Z,98.60
2019-02-06T03:09:00.237Z,98.50
2019-02-06T03:11:30.585Z,98.60
2019-02-06T03:14:00.925Z,98.70
2019-02-06T03:16:31.660Z,98.60
2019-02-06T03:19:02.443Z,98.70
2019-02-06T03:21:32.752Z,98.70
2019-02-06T03:24:03.097Z,98.70
2019-02-06T03:26:33.416Z,98.60
2019-02-06T03:29:03.761Z,98.60
2019-02-06T03:31:34.391Z,98.80
2019-02-06T03:34:05.236Z,98.70
2019-02-06T03:36:40.272Z,98.70
2019-02-06T03:39:09.686Z,98.80
2019-02-06T03:41:40.023Z,98.70
2019-02-06T03:44:11.965Z,98.70
2019-02-06T03:46:42.281Z,98.80
2019-02-06T03:49:13.277Z,98.60
2019-02-06T03:51:43.630Z,98.40
2019-02-06T03:54:13.931Z,98.50
2019-02-06T03:56:44.324Z,98.40
2019-02-06T03:59:14.638Z,98.40
2019-02-06T04:01:44.969Z,98.80
2019-02-06T04:04:15.317Z,98.50
2019-02-06T04:06:55.011Z,98.40
2019-02-06T04:09:17.563Z,98.40
2019-02-06T04:11:48.290Z,98.30
2019-02-06T04:14:18.619Z,98.40
2019-02-06T04:16:49.106Z,98.30
2019-02-06T04:19:19.863Z,98.20
2019-02-06T04:21:50.218Z,98.20
2019-02-06T04:24:20.711Z,98.20
2019-02-06T04:26:51.100Z,98.20
2019-02-06T04:29:21.490Z,98.10
2019-02-06T04:31:51.908Z,97.90
2019-02-06T04:34:22.326Z,98.00
2019-02-06T04:37:05.505Z,97.90
2019-02-06T04:39:24.594Z,97.80
2019-02-06T04:41:54.879Z,97.90
2019-02-06T04:44:25.453Z,97.80
2019-02-06T04:46:55.795Z,97.70
2019-02-06T04:49:27.046Z,97.60
2019-02-06T04:51:57.457Z,97.70
2019-02-06T04:54:27.806Z,97.80
2019-02-06T04:56:58.168Z,97.80
2019-02-06T04:59:28.535Z,97.70
2019-02-06T05:01:58.944Z,97.50
2019-02-06T05:04:29.257Z,97.50
2019-02-06T05:06:59.877Z,97.50
2019-02-06T05:09:30.205Z,97.50
2019-02-06T05:12:00.530Z,97.50
2019-02-06T05:14:30.853Z,97.60
2019-02-06T05:17:01.174Z,97.70
2019-02-06T05:19:31.984Z,97.60
2019-02-06T05:22:02.596Z,97.60
2019-02-06T05:24:32.927Z,97.40
2019-02-06T05:27:03.282Z,97.50
2019-02-06T05:29:33.620Z,97.60
2019-02-06T05:32:04.025Z,98.10
2019-02-06T05:34:34.321Z,97.70
2019-02-06T05:37:04.788Z,97.30
2019-02-06T05:39:35.168Z,97.20
2019-02-06T05:42:05.493Z,97.40
2019-02-06T05:44:35.894Z,97.40
2019-02-06T05:47:06.241Z,97.30
2019-02-06T05:49:37.809Z,97.10
2019-02-06T05:52:08.117Z,97.10
2019-02-06T05:54:38.437Z,97.20
2019-02-06T05:57:08.747Z,97.20
2019-02-06T05:59:39.155Z,97.20
2019-02-06T06:02:09.517Z,97.10
2019-02-06T06:04:40.219Z,97.20
2019-02-06T06:07:10.505Z,97.00
2019-02-06T06:09:40.853Z,97.20
2019-02-06T06:12:11.157Z,97.10
2019-02-06T06:14:41.495Z,97.30
2019-02-06T06:17:11.797Z,97.20
2019-02-06T06:19:43.707Z,97.10
2019-02-06T06:22:14.143Z,97.00
2019-02-06T06:24:44.517Z,96.90
2019-02-06T06:27:14.841Z,97.10
2019-02-06T06:29:45.221Z,96.80
2019-02-06T06:32:15.557Z,96.90
2019-02-06T06:34:46.273Z,97.00
2019-02-06T06:37:16.619Z,97.00
2019-02-06T06:39:46.993Z,97.10
2019-02-06T06:42:17.289Z,97.00
2019-02-06T06:44:47.967Z,97.10
2019-02-06T06:47:18.353Z,97.10
2019-02-06T06:49:50.143Z,97.20
2019-02-06T06:52:20.478Z,97.00
2019-02-06T06:54:50.799Z,97.30
2019-02-06T06:57:21.153Z,97.00
2019-02-06T06:59:51.516Z,97.10
2019-02-06T07:02:22.287Z,97.10
2019-02-06T07:04:52.657Z,97.20
2019-02-06T07:07:23.099Z,96.90
2019-02-06T07:09:53.477Z,96.90
2019-02-06T07:12:23.833Z,96.90
2019-02-06T07:14:54.189Z,96.90
2019-02-06T07:17:24.521Z,96.60
2019-02-06T07:19:55.121Z,96.70
2019-02-06T07:22:25.546Z,96.80
2019-02-06T07:24:55.886Z,96.70
2019-02-06T07:27:26.262Z,96.60
2019-02-06T07:29:56.971Z,96.70
2019-02-06T07:32:27.327Z,96.60
2019-02-06T07:34:57.673Z,96.80
2019-02-06T07:37:28.047Z,96.80
2019-02-06T07:39:58.382Z,96.40
2019-02-06T07:42:28.718Z,96.50
2019-02-06T07:44:59.312Z,96.60
2019-02-06T07:47:29.689Z,96.50
2019-02-06T07:50:00.719Z,96.40
2019-02-06T07:52:31.084Z,96.20
2019-02-06T07:55:01.406Z,96.30
2019-02-06T07:57:32.169Z,96.20
2019-02-06T08:00:02.652Z,96.30
2019-02-06T08:02:32.994Z,96.40
2019-02-06T08:05:03.551Z,96.20
2019-02-06T08:07:33.885Z,96.40
2019-02-06T08:10:04.892Z,96.00
2019-02-06T08:12:35.513Z,95.90
2019-02-06T08:15:07.433Z,95.60
2019-02-06T08:17:37.804Z,95.40
2019-02-06T08:20:09.950Z,95.30
2019-02-06T08:22:40.290Z,95.20
2019-02-06T08:25:12.260Z,94.80
2019-02-06T08:27:42.664Z,94.90
2019-02-06T08:30:19.293Z,94.60
2019-02-06T08:32:49.640Z,94.30
2019-02-06T08:35:20.274Z,93.80
2019-02-06T08:37:51.491Z,94.00
2019-02-06T08:40:22.808Z,93.80
2019-02-06T08:42:53.254Z,94.00
2019-02-06T08:45:23.762Z,94.00
2019-02-06T08:47:54.532Z,93.90
2019-02-06T08:50:25.117Z,93.40
2019-02-06T08:52:55.470Z,92.80
2019-02-06T08:55:27.620Z,92.80
2019-02-06T08:57:57.938Z,92.40
2019-02-06T09:00:30.814Z,92.40
2019-02-06T09:03:01.779Z,91.90
2019-02-06T09:05:32.423Z,91.90
2019-02-06T09:08:03.251Z,91.40
2019-02-06T09:10:33.606Z,90.90
2019-02-06T09:13:04.819Z,90.60
2019-02-06T09:15:37.883Z,90.40
2019-02-06T09:18:08.523Z,89.10
2019-02-06T09:20:38.971Z,88.00
2019-02-06T09:23:09.280Z,87.50
2019-02-06T09:25:39.627Z,84.70
2019-02-06T09:28:10.955Z,84.60
2019-02-06T09:30:41.323Z,84.60
2019-02-06T09:33:11.640Z,83.40
2019-02-06T09:35:41.983Z,82.50
2019-02-06T09:38:12.321Z,83.40
2019-02-06T09:40:42.653Z,82.00
2019-02-06T09:43:12.987Z,83.40
2019-02-06T09:45:43.367Z,84.20
2019-02-06T09:48:13.689Z,83.80
2019-02-06T09:50:44.043Z,82.80
2019-02-06T09:53:14.361Z,82.90
2019-02-06T09:55:44.682Z,82.70
2019-02-06T09:58:15.029Z,82.50
2019-02-06T10:00:45.748Z,84.00
2019-02-06T10:03:16.137Z,84.20
2019-02-06T10:05:46.461Z,84.30
2019-02-06T10:08:16.800Z,83.80
2019-02-06T10:10:47.121Z,83.40
2019-02-06T10:13:17.512Z,83.80
2019-02-06T10:15:48.053Z,83.20
2019-02-06T10:18:18.409Z,84.50
2019-02-06T10:20:52.879Z,84.10
2019-02-06T10:23:23.369Z,84.00
2019-02-06T10:25:54.810Z,85.20
2019-02-06T10:28:25.463Z,85.30
2019-02-06T10:30:56.075Z,85.70
2019-02-06T10:33:26.451Z,86.80
2019-02-06T10:35:56.789Z,86.50
2019-02-06T10:38:27.161Z,85.70
2019-02-06T10:41:00.730Z,85.80
2019-02-06T10:43:32.795Z,86.00
2019-02-06T10:46:03.152Z,86.20
2019-02-06T10:48:33.489Z,86.10
2019-02-06T10:51:03.904Z,86.40
2019-02-06T10:53:34.224Z,86.40
2019-02-06T10:56:04.891Z,86.80
2019-02-06T10:58:36.289Z,87.20
2019-02-06T11:01:06.750Z,87.70
2019-02-06T11:03:37.109Z,87.10
2019-02-06T11:06:07.474Z,86.70
2019-02-06T11:08:37.893Z,86.40
2019-02-06T11:11:08.216Z,85.80
2019-02-06T11:13:38.568Z,84.80
2019-02-06T11:16:08.893Z,84.20
2019-02-06T11:18:39.263Z,84.50
2019-02-06T11:21:09.636Z,84.10
2019-02-06T11:23:40.229Z,82.20
2019-02-06T11:26:10.542Z,82.80
2019-02-06T11:28:40.905Z,83.10
2019-02-06T11:31:11.273Z,82.00
2019-02-06T11:33:41.669Z,81.80
2019-02-06T11:36:23.593Z,81.00
2019-02-06T11:38:43.927Z,79.70
2019-02-06T11:41:14.271Z,78.30
2019-02-06T11:43:44.645Z,76.90
2019-02-06T11:46:16.010Z,76.80
2019-02-06T11:48:46.370Z,77.10
2019-02-06T11:51:16.883Z,77.10
2019-02-06T11:53:47.196Z,77.40
2019-02-06T11:56:17.547Z,76.70
2019-02-06T11:58:47.884Z,76.60
2019-02-06T12:01:21.839Z,76.00
2019-02-06T12:03:54.597Z,76.00
2019-02-06T12:06:24.933Z,75.60
2019-02-06T12:08:55.275Z,74.80
2019-02-06T12:11:25.602Z,74.60
2019-02-06T12:13:55.960Z,75.00
2019-02-06T12:16:26.465Z,75.50
2019-02-06T12:18:57.051Z,75.80
2019-02-06T12:21:28.671Z,76.70
2019-02-06T12:23:59.045Z,77.00
2019-02-06T12:26:29.461Z,78.00
2019-02-06T12:28:59.795Z,78.30
2019-02-06T12:31:30.130Z,78.50
2019-02-06T12:34:00.517Z,78.80
2019-02-06T12:36:30.849Z,78.70
2019-02-06T12:39:01.222Z,78.20
2019-02-06T12:41:33.181Z,78.50
2019-02-06T12:44:03.521Z,78.90
2019-02-06T12:46:33.859Z,79.10
2019-02-06T12:49:04.848Z,79.40
2019-02-06T12:51:35.170Z,79.10
2019-02-06T12:54:05.801Z,79.70
2019-02-06T12:56:36.170Z,79.60
2019-02-06T12:59:06.633Z,79.40
2019-02-06T13:01:37.927Z,79.50
2019-02-06T13:04:08.267Z,79.60
2019-02-06T13:06:38.705Z,79.50
2019-02-06T13:09:11.068Z,79.50
2019-02-06T13:11:41.449Z,80.00
2019-02-06T13:14:11.825Z,80.00
2019-02-06T13:16:42.603Z,80.10
2019-02-06T13:19:12.917Z,80.60
2019-02-06T13:21:43.275Z,80.30
2019-02-06T13:24:13.732Z,80.30
2019-02-06T13:26:44.360Z,81.20
2019-02-06T13:29:14.765Z,82.00
2019-02-06T13:31:45.287Z,82.80
2019-02-06T13:34:16.701Z,83.00
2019-02-06T13:36:47.063Z,83.00
2019-02-06T13:39:17.443Z,83.00
2019-02-06T13:41:47.777Z,82.40
2019-02-06T13:44:18.457Z,82.20
2019-02-06T13:46:53.169Z,82.20
2019-02-06T13:49:20.827Z,81.80
2019-02-06T13:51:52.286Z,81.90
2019-02-06T13:54:22.624Z,81.70
2019-02-06T13:56:53.052Z,82.00
2019-02-06T13:59:23.713Z,81.70
2019-02-06T14:01:54.076Z,82.20
2019-02-06T14:04:24.485Z,82.20
2019-02-06T14:06:54.837Z,82.40
2019-02-06T14:09:25.851Z,82.20
2019-02-06T14:11:57.318Z,82.20
2019-02-06T14:14:27.733Z,82.40
2019-02-06T14:16:58.019Z,82.80
2019-02-06T14:19:28.323Z,82.60
2019-02-06T14:22:00.337Z,82.80
2019-02-06T14:24:51.776Z,82.80
2019-02-06T14:28:09.217Z,82.70
2019-02-06T14:31:26.717Z,83.10
2019-02-06T14:34:13.258Z,83.50
2019-02-06T14:37:22.421Z,83.90
2019-02-06T14:40:29.969Z,84.30
2019-02-06T14:43:42.139Z,85.40
2019-02-06T14:46:55.595Z,84.80
2019-02-06T14:50:04.203Z,85.20
2019-02-06T14:52:47.443Z,85.60
2019-02-06T14:55:57.886Z,85.80
2019-02-06T14:59:01.892Z,86.00
2019-02-06T15:01:57.720Z,85.70
2019-02-06T15:05:00.278Z,86.00
2019-02-06T15:08:36.242Z,85.90
2019-02-06T15:11:31.161Z,85.70
2019-02-06T15:14:23.716Z,85.50
2019-02-06T15:17:34.137Z,85.60
2019-02-06T15:20:26.373Z,84.50
2019-02-06T15:23:32.622Z,83.90
2019-02-06T15:26:40.411Z,83.60
2019-02-06T15:29:39.664Z,83.40
2019-02-06T15:32:27.931Z,83.50
2019-02-06T15:35:35.337Z,83.70
2019-02-06T15:38:42.311Z,83.40
2019-02-06T15:41:31.164Z,83.00
2019-02-06T15:44:23.971Z,82.80
2019-02-06T15:47:30.595Z,83.00
2019-02-06T15:50:47.797Z,83.50
2019-02-06T15:54:14.151Z,84.10
2019-02-06T15:57:28.721Z,84.70
2019-02-06T16:01:01.292Z,85.00
2019-02-06T16:04:19.471Z,85.10
2019-02-06T16:07:45.631Z,85.60
2019-02-06T16:10:45.366Z,85.80
2019-02-06T16:13:53.404Z,85.90
2019-02-06T16:17:02.744Z,86.40
2019-02-06T16:19:44.395Z,87.00
2019-02-06T16:22:44.963Z,87.30
2019-02-06T16:25:41.769Z,87.80
2019-02-06T16:29:01.192Z,88.60
2019-02-06T16:32:13.403Z,88.90
2019-02-06T16:35:22.575Z,89.20
2019-02-06T16:38:22.839Z,89.80
2019-02-06T16:41:30.657Z,90.00
2019-02-06T16:44:50.942Z,90.30
2019-02-06T16:47:46.105Z,90.50
2019-02-06T16:50:55.982Z,90.90
2019-02-06T16:54:05.923Z,90.90
2019-02-06T16:56:53.851Z,91.30
2019-02-06T17:00:14.904Z,91.30
2019-02-06T17:03:11.611Z,91.50
2019-02-06T17:06:22.297Z,91.60
2019-02-06T17:09:32.342Z,91.80
2019-02-06T17:12:36.489Z,92.00
2019-02-06T17:15:33.722Z,92.20
2019-02-06T17:18:47.909Z,92.20
2019-02-06T17:21:52.811Z,92.20
2019-02-06T17:24:58.071Z,92.50
2019-02-06T17:27:51.200Z,92.70
2019-02-06T17:31:02.613Z,92.80
2019-02-06T17:34:04.094Z,92.70
2019-02-06T17:36:53.463Z,92.70
2019-02-06T17:39:58.051Z,92.70
2019-02-06T17:43:08.379Z,92.80
2019-02-06T17:46:11.184Z,92.90
2019-02-06T17:49:19.366Z,92.90
2019-02-06T17:52:26.426Z,93.00
2019-02-06T17:55:16.514Z,92.90
2019-02-06T17:57:47.795Z,92.90
2019-02-06T18:00:45.323Z,92.80
2019-02-06T18:03:15.751Z,92.70
2019-02-06T18:05:46.494Z,92.50
2019-02-06T18:08:16.885Z,93.10
2019-02-06T18:10:47.217Z,92.80
2019-02-06T18:13:18.059Z,92.80
2019-02-06T18:15:48.455Z,92.70
2019-02-06T18:18:18.811Z,92.90
2019-02-06T18:20:49.149Z,92.40
2019-02-06T18:23:19.504Z,92.40
2019-02-06T18:25:49.851Z,92.20
2019-02-06T18:28:20.611Z,92.10
2019-02-06T18:30:52.017Z,92.10
2019-02-06T18:33:22.769Z,92.20
2019-02-06T18:35:53.345Z,92.10
2019-02-06T18:38:24.009Z,92.10
2019-02-06T18:40:54.335Z,92.00
2019-02-06T18:43:24.782Z,92.10
2019-02-06T18:45:55.255Z,92.30
2019-02-06T18:48:25.689Z,92.30
2019-02-06T18:50:56.459Z,92.10
2019-02-06T18:53:26.797Z,92.00
2019-02-06T18:55:57.306Z,92.00
2019-02-06T18:58:29.101Z,92.10
2019-02-06T19:00:59.547Z,92.20
2019-02-06T19:03:35.227Z,92.10
2019-02-06T19:06:05.879Z,92.10
2019-02-06T19:08:36.401Z,92.10
2019-02-06T19:11:06.755Z,92.10
2019-02-06T19:13:37.083Z,91.90
2019-02-06T19:16:07.557Z,91.80
2019-02-06T19:18:37.930Z,91.90
2019-02-06T19:21:08.277Z,91.90
2019-02-06T19:23:39.039Z,91.80
2019-02-06T19:26:10.413Z,91.70
2019-02-06T19:28:42.163Z,91.60
2019-02-06T19:31:12.523Z,91.70
2019-02-06T19:33:42.864Z,91.60
2019-02-06T19:36:13.225Z,91.50
2019-02-06T19:38:46.049Z,91.20
2019-02-06T19:41:15.820Z,91.20
2019-02-06T19:43:46.154Z,91.00
2019-02-06T19:46:16.514Z,91.10
2019-02-06T19:48:46.883Z,91.20
2019-02-06T19:51:17.205Z,91.00
2019-02-06T19:53:47.949Z,91.10
2019-02-06T19:56:18.297Z,91.20
2019-02-06T19:58:50.134Z,91.00
2019-02-06T20:01:21.349Z,91.10
2019-02-06T20:03:52.783Z,91.60
2019-02-06T20:06:30.129Z,91.30
2019-02-06T20:09:09.989Z,91.50
2019-02-06T20:11:40.337Z,91.60
2019-02-06T20:14:10.780Z,91.70
2019-02-06T20:16:41.082Z,91.80
2019-02-06T20:19:11.446Z,91.90
2019-02-06T20:21:42.267Z,92.00
2019-02-06T20:24:12.682Z,92.20
2019-02-06T20:26:43.075Z,92.40
2019-02-06T20:29:13.465Z,92.50
2019-02-06T20:31:45.085Z,92.70
2019-02-06T20:34:15.461Z,92.80
2019-02-06T20:36:46.216Z,92.90
2019-02-06T20:39:16.723Z,92.90
2019-02-06T20:41:47.102Z,93.10
2019-02-06T20:44:17.544Z,93.20
2019-02-06T20:46:47.897Z,93.30
2019-02-06T20:49:18.298Z,93.50
2019-02-06T20:51:49.056Z,93.80
2019-02-06T20:54:19.483Z,93.80
2019-02-06T20:56:49.891Z,94.00
2019-02-06T20:59:30.129Z,94.10
2019-02-06T21:02:01.295Z,94.20
2019-02-06T21:04:31.632Z,94.40
2019-02-06T21:07:01.990Z,94.50
2019-02-06T21:09:32.289Z,94.60
2019-02-06T21:12:02.614Z,94.60
2019-02-06T21:14:32.938Z,94.80
2019-02-06T21:17:03.342Z,94.80
2019-02-06T21:19:34.062Z,95.00
2019-02-06T21:22:04.722Z,95.10
2019-02-06T21:24:35.022Z,95.10
2019-02-06T21:27:05.390Z,95.20
2019-02-06T21:29:35.715Z,95.20
2019-02-06T21:32:06.198Z,95.30
2019-02-06T21:34:36.943Z,95.30
2019-02-06T21:37:07.303Z,95.20
2019-02-06T21:39:37.948Z,95.20
2019-02-06T21:42:08.272Z,95.30
2019-02-06T21:44:38.598Z,95.30
2019-02-06T21:47:09.257Z,95.40
2019-02-06T21:49:39.693Z,95.40
2019-02-06T21:52:10.047Z,95.50
2019-02-06T21:54:40.376Z,95.60
2019-02-06T21:57:10.695Z,96.00
2019-02-06T21:59:41.078Z,95.80
2019-02-06T22:02:12.169Z,95.80
2019-02-06T22:04:42.516Z,95.80
2019-02-06T22:07:12.823Z,95.80
2019-02-06T22:09:43.129Z,95.70
2019-02-06T22:12:13.498Z,95.80
2019-02-06T22:14:44.102Z,95.70
2019-02-06T22:17:14.484Z,95.80
2019-02-06T22:19:44.766Z,95.90
2019-02-06T22:22:15.093Z,95.90
2019-02-06T22:24:45.465Z,96.00
2019-02-06T22:27:15.847Z,96.20
2019-02-06T22:29:46.197Z,96.30
2019-02-06T22:32:16.539Z,96.30
2019-02-06T22:34:46.877Z,96.40
2019-02-06T22:37:17.250Z,96.30
2019-02-06T22:39:47.672Z,96.30
2019-02-06T22:42:18.428Z,96.30
2019-02-06T22:44:48.824Z,96.40
2019-02-06T22:47:19.594Z,96.30
2019-02-06T22:49:50.058Z,96.30
2019-02-06T22:52:22.932Z,96.60
2019-02-06T22:54:52.720Z,96.30
2019-02-06T22:57:23.044Z,96.30
2019-02-06T22:59:53.443Z,96.20
2019-02-06T23:02:25.241Z,96.20
2019-02-06T23:04:55.653Z,96.10
2019-02-06T23:07:26.049Z,96.10
2019-02-06T23:09:56.488Z,96.00
2019-02-06T23:12:27.388Z,96.00
2019-02-06T23:14:57.839Z,96.00
2019-02-06T23:17:29.213Z,96.00
2019-02-06T23:20:00.635Z,96.00
2019-02-06T23:22:31.265Z,96.00
2019-02-06T23:25:01.608Z,96.00
2019-02-06T23:27:31.959Z,96.00
2019-02-06T23:30:02.343Z,95.90
2019-02-06T23:32:32.704Z,95.90
2019-02-06T23:35:03.347Z,95.80
2019-02-06T23:37:33.743Z,95.80
2019-02-06T23:40:05.576Z,95.70
2019-02-06T23:42:35.906Z,95.60
2019-02-06T23:45:07.002Z,95.40
2019-02-06T23:47:37.315Z,95.20
2019-02-06T23:50:07.772Z,95.00
2019-02-06T23:52:38.185Z,94.80
2019-02-06T23:55:08.562Z,94.40
2019-02-06T23:57:38.895Z,94.30
